Aviation Digital Data Service (ADDS)

Output produced by TAFs form (1730 UTC 22 February 2017)
found at http://aviationweather.gov/adds/tafs/
 
KCNM 221120Z 2212/2312 30010KT P6SM SKC